sensor_id;sensor_type;location;lat;lon;timestamp;P1;durP1;ratioP1;P2;durP2;ratioP2
17228;SDS011;8731;50.364;8.958;2022-08-19T00:03:20;21.40;;;19.17;;
17228;SDS011;8731;50.364;8.958;2022-08-19T00:07:44;21.10;;;19.07;;
17228;SDS011;8731;50.364;8.958;2022-08-19T00:12:06;21.27;;;19.10;;
17228;SDS011;8731;50.364;8.958;2022-08-19T00:16:29;21.53;;;19.50;;
17228;SDS011;8731;50.364;8.958;2022-08-19T00:20:51;21.33;;;19.13;;
17228;SDS011;8731;50.364;8.958;2022-08-19T00:25:16;20.93;;;18.30;;
17228;SDS011;8731;50.364;8.958;2022-08-19T00:29:38;20.50;;;18.57;;
17228;SDS011;8731;50.364;8.958;2022-08-19T00:34:01;20.50;;;18.50;;
17228;SDS011;8731;50.364;8.958;2022-08-19T00:38:24;19.73;;;17.73;;
17228;SDS011;8731;50.364;8.958;2022-08-19T00:42:47;20.17;;;18.03;;
17228;SDS011;8731;50.364;8.958;2022-08-19T00:47:13;19.87;;;17.97;;
17228;SDS011;8731;50.364;8.958;2022-08-19T00:51:36;20.17;;;18.17;;
17228;SDS011;8731;50.364;8.958;2022-08-19T00:55:59;20.67;;;18.57;;
17228;SDS011;8731;50.364;8.958;2022-08-19T01:00:29;20.83;;;18.70;;
17228;SDS011;8731;50.364;8.958;2022-08-19T01:04:52;20.17;;;18.17;;
17228;SDS011;8731;50.364;8.958;2022-08-19T01:09:15;19.93;;;17.93;;
17228;SDS011;8731;50.364;8.958;2022-08-19T01:13:37;20.13;;;18.13;;
17228;SDS011;8731;50.364;8.958;2022-08-19T01:18:06;19.70;;;17.70;;
17228;SDS011;8731;50.364;8.958;2022-08-19T01:22:35;21.20;;;18.90;;
17228;SDS011;8731;50.364;8.958;2022-08-19T01:27:05;20.83;;;17.80;;
17228;SDS011;8731;50.364;8.958;2022-08-19T01:31:29;21.53;;;18.23;;
17228;SDS011;8731;50.364;8.958;2022-08-19T01:35:51;18.83;;;16.90;;
17228;SDS011;8731;50.364;8.958;2022-08-19T01:40:15;19.33;;;17.33;;
17228;SDS011;8731;50.364;8.958;2022-08-19T01:44:39;19.20;;;16.33;;
17228;SDS011;8731;50.364;8.958;2022-08-19T01:49:02;18.97;;;17.13;;
17228;SDS011;8731;50.364;8.958;2022-08-19T01:53:27;17.03;;;15.27;;
17228;SDS011;8731;50.364;8.958;2022-08-19T01:57:53;17.77;;;16.07;;
17228;SDS011;8731;50.364;8.958;2022-08-19T02:02:21;17.57;;;15.90;;
17228;SDS011;8731;50.364;8.958;2022-08-19T02:06:43;17.17;;;15.33;;
17228;SDS011;8731;50.364;8.958;2022-08-19T02:11:06;16.30;;;14.80;;
17228;SDS011;8731;50.364;8.958;2022-08-19T02:15:30;16.03;;;14.53;;
17228;SDS011;8731;50.364;8.958;2022-08-19T02:19:52;17.30;;;15.60;;
17228;SDS011;8731;50.364;8.958;2022-08-19T02:24:15;15.70;;;13.90;;
17228;SDS011;8731;50.364;8.958;2022-08-19T02:28:37;17.10;;;15.33;;
17228;SDS011;8731;50.364;8.958;2022-08-19T02:33:04;16.73;;;15.00;;
17228;SDS011;8731;50.364;8.958;2022-08-19T02:37:26;16.40;;;14.70;;
17228;SDS011;8731;50.364;8.958;2022-08-19T02:42:06;16.33;;;14.03;;
17228;SDS011;8731;50.364;8.958;2022-08-19T02:46:30;15.60;;;14.07;;
17228;SDS011;8731;50.364;8.958;2022-08-19T02:50:56;15.17;;;13.63;;
17228;SDS011;8731;50.364;8.958;2022-08-19T02:55:18;15.17;;;13.73;;
17228;SDS011;8731;50.364;8.958;2022-08-19T02:59:41;17.20;;;14.80;;
17228;SDS011;8731;50.364;8.958;2022-08-19T03:04:04;15.40;;;13.73;;
17228;SDS011;8731;50.364;8.958;2022-08-19T03:08:32;17.10;;;14.87;;
17228;SDS011;8731;50.364;8.958;2022-08-19T03:12:54;16.77;;;15.00;;
17228;SDS011;8731;50.364;8.958;2022-08-19T03:17:16;16.37;;;14.67;;
17228;SDS011;8731;50.364;8.958;2022-08-19T03:21:39;16.77;;;14.47;;
17228;SDS011;8731;50.364;8.958;2022-08-19T03:26:05;15.43;;;13.93;;
17228;SDS011;8731;50.364;8.958;2022-08-19T03:30:28;14.77;;;13.30;;
17228;SDS011;8731;50.364;8.958;2022-08-19T03:34:50;16.40;;;13.63;;
17228;SDS011;8731;50.364;8.958;2022-08-19T03:39:13;14.63;;;13.17;;
17228;SDS011;8731;50.364;8.958;2022-08-19T03:43:38;15.10;;;13.60;;
17228;SDS011;8731;50.364;8.958;2022-08-19T03:48:02;15.37;;;13.97;;
17228;SDS011;8731;50.364;8.958;2022-08-19T03:52:24;15.23;;;13.83;;
17228;SDS011;8731;50.364;8.958;2022-08-19T03:56:47;14.90;;;13.50;;
17228;SDS011;8731;50.364;8.958;2022-08-19T04:01:15;16.20;;;13.40;;
17228;SDS011;8731;50.364;8.958;2022-08-19T04:05:40;15.30;;;13.80;;
17228;SDS011;8731;50.364;8.958;2022-08-19T04:10:03;16.60;;;13.90;;
17228;SDS011;8731;50.364;8.958;2022-08-19T04:14:27;15.57;;;14.00;;
17228;SDS011;8731;50.364;8.958;2022-08-19T04:18:53;16.77;;;14.97;;
17228;SDS011;8731;50.364;8.958;2022-08-19T04:23:15;16.43;;;14.87;;
17228;SDS011;8731;50.364;8.958;2022-08-19T04:27:38;17.43;;;15.40;;
17228;SDS011;8731;50.364;8.958;2022-08-19T04:32:03;18.13;;;15.67;;
17228;SDS011;8731;50.364;8.958;2022-08-19T04:36:27;18.33;;;16.43;;
17228;SDS011;8731;50.364;8.958;2022-08-19T04:40:52;17.33;;;15.57;;
17228;SDS011;8731;50.364;8.958;2022-08-19T04:45:32;19.40;;;16.43;;
17228;SDS011;8731;50.364;8.958;2022-08-19T04:49:57;19.20;;;16.40;;
17228;SDS011;8731;50.364;8.958;2022-08-19T04:54:22;17.83;;;15.00;;
17228;SDS011;8731;50.364;8.958;2022-08-19T04:58:46;17.47;;;14.90;;
17228;SDS011;8731;50.364;8.958;2022-08-19T05:03:10;14.87;;;12.37;;
17228;SDS011;8731;50.364;8.958;2022-08-19T05:07:33;12.57;;;10.97;;
17228;SDS011;8731;50.364;8.958;2022-08-19T05:11:56;12.77;;;11.10;;
17228;SDS011;8731;50.364;8.958;2022-08-19T05:16:20;11.60;;;10.50;;
17228;SDS011;8731;50.364;8.958;2022-08-19T05:20:45;11.80;;;10.57;;
17228;SDS011;8731;50.364;8.958;2022-08-19T05:25:25;12.03;;;10.60;;
17228;SDS011;8731;50.364;8.958;2022-08-19T05:29:49;10.47;;;9.37;;
17228;SDS011;8731;50.364;8.958;2022-08-19T05:34:11;11.57;;;10.40;;
17228;SDS011;8731;50.364;8.958;2022-08-19T05:38:34;12.37;;;10.67;;
17228;SDS011;8731;50.364;8.958;2022-08-19T05:42:57;13.03;;;11.73;;
17228;SDS011;8731;50.364;8.958;2022-08-19T05:47:20;11.93;;;10.83;;
17228;SDS011;8731;50.364;8.958;2022-08-19T05:51:43;12.40;;;11.10;;
17228;SDS011;8731;50.364;8.958;2022-08-19T05:56:05;13.37;;;11.93;;
17228;SDS011;8731;50.364;8.958;2022-08-19T06:00:30;12.30;;;10.73;;
17228;SDS011;8731;50.364;8.958;2022-08-19T06:04:53;11.23;;;10.17;;
17228;SDS011;8731;50.364;8.958;2022-08-19T06:09:16;11.43;;;10.33;;
17228;SDS011;8731;50.364;8.958;2022-08-19T06:13:38;11.17;;;9.97;;
17228;SDS011;8731;50.364;8.958;2022-08-19T06:18:00;14.67;;;10.97;;
17228;SDS011;8731;50.364;8.958;2022-08-19T06:22:24;12.50;;;11.23;;
17228;SDS011;8731;50.364;8.958;2022-08-19T06:26:48;12.90;;;11.60;;
17228;SDS011;8731;50.364;8.958;2022-08-19T06:31:12;11.27;;;10.17;;
17228;SDS011;8731;50.364;8.958;2022-08-19T06:35:38;12.40;;;11.00;;
17228;SDS011;8731;50.364;8.958;2022-08-19T06:40:02;10.63;;;9.63;;
17228;SDS011;8731;50.364;8.958;2022-08-19T06:44:29;11.13;;;9.90;;
17228;SDS011;8731;50.364;8.958;2022-08-19T06:48:54;10.60;;;9.60;;
17228;SDS011;8731;50.364;8.958;2022-08-19T06:53:16;11.40;;;10.27;;
17228;SDS011;8731;50.364;8.958;2022-08-19T06:57:40;10.53;;;9.53;;
17228;SDS011;8731;50.364;8.958;2022-08-19T07:02:06;10.70;;;9.20;;
17228;SDS011;8731;50.364;8.958;2022-08-19T07:06:29;9.40;;;8.60;;
17228;SDS011;8731;50.364;8.958;2022-08-19T07:10:52;10.90;;;8.57;;
17228;SDS011;8731;50.364;8.958;2022-08-19T07:15:15;9.03;;;8.13;;
17228;SDS011;8731;50.364;8.958;2022-08-19T07:19:38;8.30;;;7.50;;
17228;SDS011;8731;50.364;8.958;2022-08-19T07:24:02;9.67;;;8.33;;
17228;SDS011;8731;50.364;8.958;2022-08-19T07:28:26;8.83;;;7.93;;
17228;SDS011;8731;50.364;8.958;2022-08-19T07:32:49;9.07;;;7.97;;
17228;SDS011;8731;50.364;8.958;2022-08-19T07:37:12;7.90;;;7.10;;
17228;SDS011;8731;50.364;8.958;2022-08-19T07:41:35;10.23;;;7.37;;
17228;SDS011;8731;50.364;8.958;2022-08-19T07:45:57;15.13;;;7.47;;
17228;SDS011;8731;50.364;8.958;2022-08-19T07:50:21;14.07;;;6.97;;
17228;SDS011;8731;50.364;8.958;2022-08-19T07:54:44;9.67;;;6.87;;
17228;SDS011;8731;50.364;8.958;2022-08-19T07:59:06;11.57;;;6.00;;
17228;SDS011;8731;50.364;8.958;2022-08-19T08:03:29;6.53;;;5.10;;
17228;SDS011;8731;50.364;8.958;2022-08-19T08:08:11;4.97;;;4.47;;
17228;SDS011;8731;50.364;8.958;2022-08-19T08:12:56;6.57;;;4.73;;
17228;SDS011;8731;50.364;8.958;2022-08-19T08:17:20;6.00;;;4.60;;
17228;SDS011;8731;50.364;8.958;2022-08-19T08:21:46;5.70;;;4.50;;
17228;SDS011;8731;50.364;8.958;2022-08-19T08:26:10;5.20;;;4.67;;
17228;SDS011;8731;50.364;8.958;2022-08-19T08:30:34;5.77;;;4.53;;
17228;SDS011;8731;50.364;8.958;2022-08-19T08:34:59;6.73;;;5.20;;
17228;SDS011;8731;50.364;8.958;2022-08-19T08:39:22;5.03;;;4.53;;
17228;SDS011;8731;50.364;8.958;2022-08-19T08:43:46;5.83;;;4.70;;
17228;SDS011;8731;50.364;8.958;2022-08-19T08:48:15;5.27;;;4.27;;
17228;SDS011;8731;50.364;8.958;2022-08-19T08:52:45;4.23;;;3.83;;
17228;SDS011;8731;50.364;8.958;2022-08-19T08:57:12;5.50;;;4.37;;
17228;SDS011;8731;50.364;8.958;2022-08-19T09:01:44;3.97;;;3.53;;
17228;SDS011;8731;50.364;8.958;2022-08-19T09:06:07;3.73;;;3.43;;
17228;SDS011;8731;50.364;8.958;2022-08-19T09:10:40;5.03;;;3.60;;
17228;SDS011;8731;50.364;8.958;2022-08-19T09:15:09;6.23;;;4.23;;
17228;SDS011;8731;50.364;8.958;2022-08-19T09:19:36;3.97;;;3.20;;
17228;SDS011;8731;50.364;8.958;2022-08-19T09:24:12;3.70;;;3.13;;
17228;SDS011;8731;50.364;8.958;2022-08-19T09:28:34;4.90;;;3.50;;
17228;SDS011;8731;50.364;8.958;2022-08-19T09:32:58;3.67;;;3.10;;
17228;SDS011;8731;50.364;8.958;2022-08-19T09:37:22;3.40;;;3.10;;
17228;SDS011;8731;50.364;8.958;2022-08-19T09:41:44;4.27;;;3.17;;
17228;SDS011;8731;50.364;8.958;2022-08-19T09:46:07;4.82;;;3.10;;
17228;SDS011;8731;50.364;8.958;2022-08-19T09:50:30;3.53;;;3.10;;
17228;SDS011;8731;50.364;8.958;2022-08-19T09:54:57;3.47;;;2.75;;
17228;SDS011;8731;50.364;8.958;2022-08-19T09:59:19;4.28;;;2.70;;
17228;SDS011;8731;50.364;8.958;2022-08-19T10:03:42;2.80;;;2.47;;
17228;SDS011;8731;50.364;8.958;2022-08-19T10:08:04;3.47;;;2.88;;
17228;SDS011;8731;50.364;8.958;2022-08-19T10:12:27;2.50;;;2.28;;
17228;SDS011;8731;50.364;8.958;2022-08-19T10:16:50;4.18;;;2.50;;
17228;SDS011;8731;50.364;8.958;2022-08-19T10:21:13;2.95;;;2.60;;
17228;SDS011;8731;50.364;8.958;2022-08-19T10:25:38;3.22;;;2.35;;
17228;SDS011;8731;50.364;8.958;2022-08-19T10:30:02;5.55;;;2.63;;
17228;SDS011;8731;50.364;8.958;2022-08-19T10:34:26;2.50;;;2.30;;
17228;SDS011;8731;50.364;8.958;2022-08-19T10:38:51;3.38;;;2.60;;
17228;SDS011;8731;50.364;8.958;2022-08-19T10:43:18;3.40;;;2.20;;
17228;SDS011;8731;50.364;8.958;2022-08-19T10:47:42;4.15;;;2.40;;
17228;SDS011;8731;50.364;8.958;2022-08-19T10:52:04;3.85;;;2.00;;
17228;SDS011;8731;50.364;8.958;2022-08-19T10:56:44;3.15;;;2.50;;
17228;SDS011;8731;50.364;8.958;2022-08-19T11:01:12;4.47;;;2.47;;
17228;SDS011;8731;50.364;8.958;2022-08-19T11:05:36;3.17;;;2.40;;
17228;SDS011;8731;50.364;8.958;2022-08-19T11:09:59;3.30;;;2.40;;
17228;SDS011;8731;50.364;8.958;2022-08-19T11:14:23;6.15;;;2.60;;
17228;SDS011;8731;50.364;8.958;2022-08-19T11:18:46;4.03;;;2.80;;
17228;SDS011;8731;50.364;8.958;2022-08-19T11:23:13;2.58;;;2.30;;
17228;SDS011;8731;50.364;8.958;2022-08-19T11:27:37;2.67;;;2.33;;
17228;SDS011;8731;50.364;8.958;2022-08-19T11:32:03;3.55;;;2.30;;
17228;SDS011;8731;50.364;8.958;2022-08-19T11:36:29;2.72;;;2.50;;
17228;SDS011;8731;50.364;8.958;2022-08-19T11:40:57;7.30;;;2.50;;
17228;SDS011;8731;50.364;8.958;2022-08-19T11:45:22;2.63;;;2.28;;
17228;SDS011;8731;50.364;8.958;2022-08-19T11:49:45;2.13;;;1.90;;
17228;SDS011;8731;50.364;8.958;2022-08-19T11:54:07;3.45;;;2.03;;
17228;SDS011;8731;50.364;8.958;2022-08-19T11:58:31;2.80;;;1.90;;
17228;SDS011;8731;50.364;8.958;2022-08-19T12:02:55;2.10;;;2.00;;
17228;SDS011;8731;50.364;8.958;2022-08-19T12:07:17;2.88;;;2.10;;
17228;SDS011;8731;50.364;8.958;2022-08-19T12:11:39;2.35;;;1.92;;
17228;SDS011;8731;50.364;8.958;2022-08-19T12:16:08;2.72;;;2.00;;
17228;SDS011;8731;50.364;8.958;2022-08-19T12:20:34;2.58;;;1.80;;
17228;SDS011;8731;50.364;8.958;2022-08-19T12:24:56;2.05;;;1.92;;
17228;SDS011;8731;50.364;8.958;2022-08-19T12:29:19;2.83;;;1.90;;
17228;SDS011;8731;50.364;8.958;2022-08-19T12:33:49;2.10;;;2.00;;
17228;SDS011;8731;50.364;8.958;2022-08-19T12:38:13;2.30;;;1.88;;
17228;SDS011;8731;50.364;8.958;2022-08-19T12:42:36;4.40;;;2.75;;
17228;SDS011;8731;50.364;8.958;2022-08-19T12:47:02;3.88;;;2.40;;
17228;SDS011;8731;50.364;8.958;2022-08-19T12:51:26;3.85;;;2.90;;
17228;SDS011;8731;50.364;8.958;2022-08-19T12:55:54;4.30;;;2.72;;
17228;SDS011;8731;50.364;8.958;2022-08-19T13:00:18;3.90;;;2.53;;
17228;SDS011;8731;50.364;8.958;2022-08-19T13:04:42;3.17;;;2.80;;
17228;SDS011;8731;50.364;8.958;2022-08-19T13:09:06;3.17;;;2.97;;
17228;SDS011;8731;50.364;8.958;2022-08-19T13:13:28;4.00;;;2.85;;
17228;SDS011;8731;50.364;8.958;2022-08-19T13:17:51;4.78;;;3.03;;
17228;SDS011;8731;50.364;8.958;2022-08-19T13:22:15;3.33;;;3.08;;
17228;SDS011;8731;50.364;8.958;2022-08-19T13:26:39;3.65;;;3.35;;
17228;SDS011;8731;50.364;8.958;2022-08-19T13:31:01;3.85;;;3.45;;
17228;SDS011;8731;50.364;8.958;2022-08-19T13:35:43;3.80;;;3.50;;
17228;SDS011;8731;50.364;8.958;2022-08-19T13:40:09;4.20;;;3.80;;
17228;SDS011;8731;50.364;8.958;2022-08-19T13:44:38;4.25;;;3.90;;
17228;SDS011;8731;50.364;8.958;2022-08-19T13:49:00;4.45;;;3.75;;
17228;SDS011;8731;50.364;8.958;2022-08-19T13:53:23;3.97;;;3.42;;
17228;SDS011;8731;50.364;8.958;2022-08-19T13:57:45;3.60;;;3.30;;
17228;SDS011;8731;50.364;8.958;2022-08-19T14:02:14;5.28;;;4.00;;
17228;SDS011;8731;50.364;8.958;2022-08-19T14:06:36;4.45;;;3.80;;
17228;SDS011;8731;50.364;8.958;2022-08-19T14:10:58;4.55;;;3.45;;
17228;SDS011;8731;50.364;8.958;2022-08-19T14:15:22;3.80;;;3.30;;
17228;SDS011;8731;50.364;8.958;2022-08-19T14:19:45;6.57;;;3.73;;
17228;SDS011;8731;50.364;8.958;2022-08-19T14:24:08;4.07;;;3.70;;
17228;SDS011;8731;50.364;8.958;2022-08-19T14:28:30;4.10;;;3.80;;
17228;SDS011;8731;50.364;8.958;2022-08-19T14:32:53;4.43;;;4.03;;
17228;SDS011;8731;50.364;8.958;2022-08-19T14:37:17;4.50;;;4.07;;
17228;SDS011;8731;50.364;8.958;2022-08-19T14:41:39;9.83;;;6.40;;
17228;SDS011;8731;50.364;8.958;2022-08-19T14:46:03;5.23;;;4.70;;
17228;SDS011;8731;50.364;8.958;2022-08-19T14:50:25;7.37;;;4.90;;
17228;SDS011;8731;50.364;8.958;2022-08-19T14:54:49;9.37;;;5.17;;
17228;SDS011;8731;50.364;8.958;2022-08-19T14:59:12;5.53;;;4.70;;
17228;SDS011;8731;50.364;8.958;2022-08-19T15:03:35;5.73;;;4.83;;
17228;SDS011;8731;50.364;8.958;2022-08-19T15:07:57;5.43;;;4.93;;
17228;SDS011;8731;50.364;8.958;2022-08-19T15:12:24;5.00;;;4.60;;
17228;SDS011;8731;50.364;8.958;2022-08-19T15:16:47;4.70;;;4.40;;
17228;SDS011;8731;50.364;8.958;2022-08-19T15:21:09;4.63;;;4.10;;
17228;SDS011;8731;50.364;8.958;2022-08-19T15:25:34;5.77;;;4.87;;
17228;SDS011;8731;50.364;8.958;2022-08-19T15:29:58;5.23;;;4.67;;
17228;SDS011;8731;50.364;8.958;2022-08-19T15:34:20;4.83;;;4.40;;
17228;SDS011;8731;50.364;8.958;2022-08-19T15:38:43;4.97;;;4.47;;
17228;SDS011;8731;50.364;8.958;2022-08-19T15:43:05;4.50;;;4.10;;
17228;SDS011;8731;50.364;8.958;2022-08-19T15:47:29;5.30;;;4.77;;
17228;SDS011;8731;50.364;8.958;2022-08-19T15:51:52;5.13;;;4.63;;
17228;SDS011;8731;50.364;8.958;2022-08-19T15:56:16;5.20;;;4.73;;
17228;SDS011;8731;50.364;8.958;2022-08-19T16:00:39;5.10;;;4.77;;
17228;SDS011;8731;50.364;8.958;2022-08-19T16:05:21;5.37;;;4.97;;
17228;SDS011;8731;50.364;8.958;2022-08-19T16:10:06;6.47;;;4.90;;
17228;SDS011;8731;50.364;8.958;2022-08-19T16:14:30;4.90;;;4.50;;
17228;SDS011;8731;50.364;8.958;2022-08-19T16:18:57;4.67;;;4.20;;
17228;SDS011;8731;50.364;8.958;2022-08-19T16:23:23;4.60;;;4.30;;
17228;SDS011;8731;50.364;8.958;2022-08-19T16:27:45;4.63;;;4.23;;
17228;SDS011;8731;50.364;8.958;2022-08-19T16:32:11;6.43;;;4.43;;
17228;SDS011;8731;50.364;8.958;2022-08-19T16:36:34;4.53;;;4.13;;
17228;SDS011;8731;50.364;8.958;2022-08-19T16:41:02;4.50;;;4.20;;
17228;SDS011;8731;50.364;8.958;2022-08-19T16:45:25;4.20;;;3.77;;
17228;SDS011;8731;50.364;8.958;2022-08-19T16:49:47;4.07;;;3.67;;
17228;SDS011;8731;50.364;8.958;2022-08-19T16:54:10;4.00;;;3.70;;
17228;SDS011;8731;50.364;8.958;2022-08-19T16:58:34;7.20;;;3.70;;
17228;SDS011;8731;50.364;8.958;2022-08-19T17:03:02;5.47;;;3.47;;
17228;SDS011;8731;50.364;8.958;2022-08-19T17:07:29;4.87;;;3.57;;
17228;SDS011;8731;50.364;8.958;2022-08-19T17:11:52;3.47;;;3.07;;
17228;SDS011;8731;50.364;8.958;2022-08-19T17:16:15;4.13;;;3.40;;
17228;SDS011;8731;50.364;8.958;2022-08-19T17:20:41;4.67;;;3.13;;
17228;SDS011;8731;50.364;8.958;2022-08-19T17:25:05;3.20;;;2.93;;
17228;SDS011;8731;50.364;8.958;2022-08-19T17:29:28;4.57;;;3.23;;
17228;SDS011;8731;50.364;8.958;2022-08-19T17:33:52;4.87;;;4.30;;
17228;SDS011;8731;50.364;8.958;2022-08-19T17:38:16;4.17;;;3.10;;
17228;SDS011;8731;50.364;8.958;2022-08-19T17:42:43;4.67;;;2.97;;
17228;SDS011;8731;50.364;8.958;2022-08-19T17:47:05;4.03;;;3.13;;
17228;SDS011;8731;50.364;8.958;2022-08-19T17:51:39;3.53;;;3.23;;
17228;SDS011;8731;50.364;8.958;2022-08-19T17:56:05;4.80;;;3.20;;
17228;SDS011;8731;50.364;8.958;2022-08-19T18:00:29;3.20;;;2.90;;
17228;SDS011;8731;50.364;8.958;2022-08-19T18:04:52;3.93;;;3.07;;
17228;SDS011;8731;50.364;8.958;2022-08-19T18:09:16;3.47;;;3.17;;
17228;SDS011;8731;50.364;8.958;2022-08-19T18:13:38;5.03;;;2.93;;
17228;SDS011;8731;50.364;8.958;2022-08-19T18:18:01;3.20;;;3.00;;
17228;SDS011;8731;50.364;8.958;2022-08-19T18:22:25;5.27;;;2.93;;
17228;SDS011;8731;50.364;8.958;2022-08-19T18:26:51;3.47;;;3.00;;
17228;SDS011;8731;50.364;8.958;2022-08-19T18:31:13;3.60;;;3.00;;
17228;SDS011;8731;50.364;8.958;2022-08-19T18:35:36;3.90;;;3.57;;
17228;SDS011;8731;50.364;8.958;2022-08-19T18:39:58;4.93;;;3.50;;
17228;SDS011;8731;50.364;8.958;2022-08-19T18:44:39;5.07;;;3.20;;
17228;SDS011;8731;50.364;8.958;2022-08-19T18:49:20;3.43;;;3.13;;
17228;SDS011;8731;50.364;8.958;2022-08-19T18:53:46;3.80;;;3.40;;
17228;SDS011;8731;50.364;8.958;2022-08-19T18:58:09;6.47;;;3.63;;
17228;SDS011;8731;50.364;8.958;2022-08-19T19:02:36;7.20;;;3.50;;
17228;SDS011;8731;50.364;8.958;2022-08-19T19:07:00;3.37;;;3.07;;
17228;SDS011;8731;50.364;8.958;2022-08-19T19:11:24;5.73;;;3.33;;
17228;SDS011;8731;50.364;8.958;2022-08-19T19:15:50;4.00;;;3.60;;
17228;SDS011;8731;50.364;8.958;2022-08-19T19:20:14;5.17;;;3.87;;
17228;SDS011;8731;50.364;8.958;2022-08-19T19:24:37;4.33;;;3.40;;
17228;SDS011;8731;50.364;8.958;2022-08-19T19:29:03;3.53;;;3.23;;
17228;SDS011;8731;50.364;8.958;2022-08-19T19:33:25;4.33;;;3.50;;
17228;SDS011;8731;50.364;8.958;2022-08-19T19:37:50;5.00;;;4.23;;
17228;SDS011;8731;50.364;8.958;2022-08-19T19:42:13;4.30;;;4.00;;
17228;SDS011;8731;50.364;8.958;2022-08-19T19:46:39;7.57;;;4.37;;
17228;SDS011;8731;50.364;8.958;2022-08-19T19:51:02;4.87;;;4.07;;
17228;SDS011;8731;50.364;8.958;2022-08-19T19:55:26;5.20;;;4.00;;
17228;SDS011;8731;50.364;8.958;2022-08-19T19:59:49;4.77;;;3.93;;
17228;SDS011;8731;50.364;8.958;2022-08-19T20:04:11;4.80;;;4.40;;
17228;SDS011;8731;50.364;8.958;2022-08-19T20:08:34;6.20;;;4.30;;
17228;SDS011;8731;50.364;8.958;2022-08-19T20:13:16;5.57;;;4.23;;
17228;SDS011;8731;50.364;8.958;2022-08-19T20:17:38;6.13;;;4.30;;
17228;SDS011;8731;50.364;8.958;2022-08-19T20:22:02;4.77;;;4.37;;
17228;SDS011;8731;50.364;8.958;2022-08-19T20:26:26;4.90;;;4.50;;
17228;SDS011;8731;50.364;8.958;2022-08-19T20:30:50;4.97;;;4.10;;
17228;SDS011;8731;50.364;8.958;2022-08-19T20:35:13;5.07;;;4.57;;
17228;SDS011;8731;50.364;8.958;2022-08-19T20:39:38;4.57;;;4.17;;
17228;SDS011;8731;50.364;8.958;2022-08-19T20:44:00;5.07;;;4.60;;
17228;SDS011;8731;50.364;8.958;2022-08-19T20:48:25;6.40;;;4.70;;
17228;SDS011;8731;50.364;8.958;2022-08-19T20:52:48;6.10;;;4.97;;
17228;SDS011;8731;50.364;8.958;2022-08-19T20:57:10;7.60;;;4.73;;
17228;SDS011;8731;50.364;8.958;2022-08-19T21:01:33;6.80;;;5.10;;
17228;SDS011;8731;50.364;8.958;2022-08-19T21:05:57;5.90;;;5.30;;
17228;SDS011;8731;50.364;8.958;2022-08-19T21:10:19;5.90;;;5.07;;
17228;SDS011;8731;50.364;8.958;2022-08-19T21:14:42;5.90;;;5.00;;
17228;SDS011;8731;50.364;8.958;2022-08-19T21:19:04;5.60;;;5.10;;
17228;SDS011;8731;50.364;8.958;2022-08-19T21:23:28;6.63;;;5.10;;
17228;SDS011;8731;50.364;8.958;2022-08-19T21:27:52;5.97;;;5.40;;
17228;SDS011;8731;50.364;8.958;2022-08-19T21:32:14;5.80;;;5.20;;
17228;SDS011;8731;50.364;8.958;2022-08-19T21:36:36;6.20;;;5.10;;
17228;SDS011;8731;50.364;8.958;2022-08-19T21:41:01;6.17;;;4.83;;
17228;SDS011;8731;50.364;8.958;2022-08-19T21:45:25;7.57;;;5.27;;
17228;SDS011;8731;50.364;8.958;2022-08-19T21:49:47;6.03;;;4.80;;
17228;SDS011;8731;50.364;8.958;2022-08-19T21:54:10;5.80;;;5.20;;
17228;SDS011;8731;50.364;8.958;2022-08-19T21:58:33;7.67;;;5.37;;
17228;SDS011;8731;50.364;8.958;2022-08-19T22:02:56;6.87;;;4.70;;
17228;SDS011;8731;50.364;8.958;2022-08-19T22:07:20;8.20;;;5.50;;
17228;SDS011;8731;50.364;8.958;2022-08-19T22:11:43;8.43;;;5.50;;
17228;SDS011;8731;50.364;8.958;2022-08-19T22:16:07;7.47;;;5.13;;
17228;SDS011;8731;50.364;8.958;2022-08-19T22:20:30;5.40;;;4.90;;
17228;SDS011;8731;50.364;8.958;2022-08-19T22:24:54;8.13;;;5.30;;
17228;SDS011;8731;50.364;8.958;2022-08-19T22:29:25;5.57;;;4.90;;
17228;SDS011;8731;50.364;8.958;2022-08-19T22:33:49;5.77;;;5.17;;
17228;SDS011;8731;50.364;8.958;2022-08-19T22:38:11;5.80;;;5.13;;
17228;SDS011;8731;50.364;8.958;2022-08-19T22:42:34;6.13;;;5.33;;
17228;SDS011;8731;50.364;8.958;2022-08-19T22:46:57;7.67;;;4.73;;
17228;SDS011;8731;50.364;8.958;2022-08-19T22:51:21;5.97;;;5.20;;
17228;SDS011;8731;50.364;8.958;2022-08-19T22:56:01;5.63;;;5.00;;
17228;SDS011;8731;50.364;8.958;2022-08-19T23:00:25;6.23;;;5.63;;
17228;SDS011;8731;50.364;8.958;2022-08-19T23:04:49;8.43;;;5.50;;
17228;SDS011;8731;50.364;8.958;2022-08-19T23:09:13;6.00;;;5.23;;
17228;SDS011;8731;50.364;8.958;2022-08-19T23:13:36;6.13;;;5.30;;
17228;SDS011;8731;50.364;8.958;2022-08-19T23:17:59;6.47;;;5.47;;
17228;SDS011;8731;50.364;8.958;2022-08-19T23:22:24;6.07;;;5.20;;
17228;SDS011;8731;50.364;8.958;2022-08-19T23:26:49;5.87;;;5.37;;
17228;SDS011;8731;50.364;8.958;2022-08-19T23:31:29;6.13;;;5.63;;
17228;SDS011;8731;50.364;8.958;2022-08-19T23:35:52;5.93;;;5.13;;
17228;SDS011;8731;50.364;8.958;2022-08-19T23:40:17;6.17;;;5.17;;
17228;SDS011;8731;50.364;8.958;2022-08-19T23:44:43;5.17;;;4.67;;
17228;SDS011;8731;50.364;8.958;2022-08-19T23:49:05;5.90;;;5.40;;
17228;SDS011;8731;50.364;8.958;2022-08-19T23:53:27;7.47;;;5.47;;
17228;SDS011;8731;50.364;8.958;2022-08-19T23:57:50;6.37;;;5.20;;
